sensor_id;sensor_type;location;lat;lon;timestamp;pressure;altitude;pressure_sealevel;temperature;humidity
79142;BME280;68550;-26.480;29.234;2023-10-19T00:01:17;84732.62;;;23.77;34.29
79142;BME280;68550;-26.480;29.234;2023-10-19T00:25:33;84724.61;;;23.90;34.62
79142;BME280;68550;-26.480;29.234;2023-10-19T00:27:58;84725.14;;;23.55;34.67
79142;BME280;68550;-26.480;29.234;2023-10-19T00:44:57;84730.43;;;23.71;34.07
79142;BME280;68550;-26.480;29.234;2023-10-19T00:47:24;84735.28;;;23.95;34.01
79142;BME280;68550;-26.480;29.234;2023-10-19T00:49:47;84732.31;;;23.70;33.99
79142;BME280;68550;-26.480;29.234;2023-10-19T00:52:13;84732.71;;;23.83;34.09
79142;BME280;68550;-26.480;29.234;2023-10-19T00:54:40;84731.99;;;23.55;34.13
79142;BME280;68550;-26.480;29.234;2023-10-19T00:57:04;84731.25;;;23.83;34.07
79142;BME280;68550;-26.480;29.234;2023-10-19T00:59:29;84733.66;;;23.47;34.13
79142;BME280;68550;-26.480;29.234;2023-10-19T01:01:55;84733.10;;;23.63;34.29
79142;BME280;68550;-26.480;29.234;2023-10-19T01:26:08;84750.67;;;23.49;34.33
79142;BME280;68550;-26.480;29.234;2023-10-19T01:28:36;84752.74;;;23.58;34.47
79142;BME280;68550;-26.480;29.234;2023-10-19T01:45:31;84744.72;;;23.79;33.84
79142;BME280;68550;-26.480;29.234;2023-10-19T01:47:56;84745.17;;;23.69;33.94
79142;BME280;68550;-26.480;29.234;2023-10-19T01:50:22;84741.40;;;23.65;33.97
79142;BME280;68550;-26.480;29.234;2023-10-19T01:52:48;84741.10;;;23.36;34.03
79142;BME280;68550;-26.480;29.234;2023-10-19T01:55:14;84743.68;;;23.57;34.11
79142;BME280;68550;-26.480;29.234;2023-10-19T01:57:38;84745.50;;;23.49;34.28
79142;BME280;68550;-26.480;29.234;2023-10-19T02:00:05;84743.78;;;23.63;34.19
79142;BME280;68550;-26.480;29.234;2023-10-19T02:02:29;84750.33;;;23.40;34.52
79142;BME280;68550;-26.480;29.234;2023-10-19T02:04:57;84751.95;;;23.46;34.48
79142;BME280;68550;-26.480;29.234;2023-10-19T02:07:22;84752.75;;;23.51;34.55
79142;BME280;68550;-26.480;29.234;2023-10-19T02:09:46;84755.91;;;23.39;34.56
79142;BME280;68550;-26.480;29.234;2023-10-19T02:12:11;84757.45;;;23.39;34.60
79142;BME280;68550;-26.480;29.234;2023-10-19T02:14:36;84757.33;;;23.42;34.47
79142;BME280;68550;-26.480;29.234;2023-10-19T02:17:03;84758.04;;;23.58;34.28
79142;BME280;68550;-26.480;29.234;2023-10-19T02:19:28;84761.49;;;23.43;34.54
79142;BME280;68550;-26.480;29.234;2023-10-19T02:22:03;84764.14;;;23.30;34.56
79142;BME280;68550;-26.480;29.234;2023-10-19T02:24:17;84770.66;;;23.39;34.58
79142;BME280;68550;-26.480;29.234;2023-10-19T02:29:09;84772.82;;;23.48;34.28
79142;BME280;68550;-26.480;29.234;2023-10-19T02:31:34;84774.05;;;23.32;34.38
79142;BME280;68550;-26.480;29.234;2023-10-19T02:33:59;84776.90;;;23.40;34.24
79142;BME280;68550;-26.480;29.234;2023-10-19T02:36:25;84775.80;;;23.38;34.26
79142;BME280;68550;-26.480;29.234;2023-10-19T02:38:50;84774.11;;;23.36;34.25
79142;BME280;68550;-26.480;29.234;2023-10-19T02:41:19;84775.34;;;23.36;34.23
79142;BME280;68550;-26.480;29.234;2023-10-19T02:46:06;84776.02;;;23.49;34.07
79142;BME280;68550;-26.480;29.234;2023-10-19T02:48:31;84768.36;;;23.55;34.05
79142;BME280;68550;-26.480;29.234;2023-10-19T02:50:57;84764.54;;;23.21;34.17
79142;BME280;68550;-26.480;29.234;2023-10-19T02:53:23;84763.03;;;23.42;34.29
79142;BME280;68550;-26.480;29.234;2023-10-19T02:55:48;84761.17;;;23.34;34.44
79142;BME280;68550;-26.480;29.234;2023-10-19T02:58:13;84760.59;;;23.42;34.32
79142;BME280;68550;-26.480;29.234;2023-10-19T03:00:39;84759.54;;;23.35;34.42
79142;BME280;68550;-26.480;29.234;2023-10-19T03:03:05;84763.33;;;23.42;34.39
79142;BME280;68550;-26.480;29.234;2023-10-19T03:12:45;84778.83;;;23.18;34.50
79142;BME280;68550;-26.480;29.234;2023-10-19T03:20:02;84778.48;;;23.30;34.35
79142;BME280;68550;-26.480;29.234;2023-10-19T03:24:52;84787.07;;;23.39;34.08
79142;BME280;68550;-26.480;29.234;2023-10-19T03:27:18;84789.10;;;23.69;34.07
79142;BME280;68550;-26.480;29.234;2023-10-19T03:29:46;84790.42;;;23.28;34.24
79142;BME280;68550;-26.480;29.234;2023-10-19T03:32:09;84792.94;;;23.12;34.49
79142;BME280;68550;-26.480;29.234;2023-10-19T03:34:36;84792.82;;;23.14;34.42
79142;BME280;68550;-26.480;29.234;2023-10-19T03:37:00;84796.79;;;23.15;34.40
79142;BME280;68550;-26.480;29.234;2023-10-19T03:39:25;84794.90;;;22.98;34.32
79142;BME280;68550;-26.480;29.234;2023-10-19T03:41:52;84793.56;;;23.15;34.50
79142;BME280;68550;-26.480;29.234;2023-10-19T03:44:17;84800.65;;;23.17;34.47
79142;BME280;68550;-26.480;29.234;2023-10-19T03:46:42;84805.11;;;23.14;34.52
79142;BME280;68550;-26.480;29.234;2023-10-19T03:49:08;84804.74;;;23.22;34.34
79142;BME280;68550;-26.480;29.234;2023-10-19T03:53:57;84816.46;;;23.25;34.21
79142;BME280;68550;-26.480;29.234;2023-10-19T03:56:25;84825.04;;;23.21;34.24
79142;BME280;68550;-26.480;29.234;2023-10-19T04:32:46;84876.39;;;23.38;34.35
79142;BME280;68550;-26.480;29.234;2023-10-19T04:42:45;84876.79;;;23.62;34.30
79142;BME280;68550;-26.480;29.234;2023-10-19T04:47:18;84878.29;;;23.01;35.16
79142;BME280;68550;-26.480;29.234;2023-10-19T04:49:43;84875.74;;;23.50;34.98
79142;BME280;68550;-26.480;29.234;2023-10-19T04:54:34;84874.98;;;23.55;34.84
79142;BME280;68550;-26.480;29.234;2023-10-19T04:56:59;84880.12;;;23.68;34.97
79142;BME280;68550;-26.480;29.234;2023-10-19T05:01:53;84886.10;;;23.60;35.10
79142;BME280;68550;-26.480;29.234;2023-10-19T05:04:21;84887.85;;;23.69;35.13
79142;BME280;68550;-26.480;29.234;2023-10-19T05:06:43;84885.80;;;23.51;35.29
79142;BME280;68550;-26.480;29.234;2023-10-19T05:09:07;84887.11;;;23.75;35.33
79142;BME280;68550;-26.480;29.234;2023-10-19T05:11:33;84885.77;;;23.59;35.29
79142;BME280;68550;-26.480;29.234;2023-10-19T05:13:57;84881.94;;;23.56;35.27
79142;BME280;68550;-26.480;29.234;2023-10-19T05:16:23;84886.81;;;23.42;35.62
79142;BME280;68550;-26.480;29.234;2023-10-19T05:18:49;84894.22;;;23.39;35.73
79142;BME280;68550;-26.480;29.234;2023-10-19T05:21:14;84898.39;;;23.25;36.80
79142;BME280;68550;-26.480;29.234;2023-10-19T05:23:39;84900.27;;;22.86;36.96
79142;BME280;68550;-26.480;29.234;2023-10-19T05:26:05;84893.65;;;23.47;36.28
79142;BME280;68550;-26.480;29.234;2023-10-19T05:33:21;84897.71;;;23.28;36.02
79142;BME280;68550;-26.480;29.234;2023-10-19T05:35:47;84895.90;;;23.26;35.87
79142;BME280;68550;-26.480;29.234;2023-10-19T05:38:12;84894.84;;;23.22;35.96
79142;BME280;68550;-26.480;29.234;2023-10-19T05:40:38;84902.68;;;23.32;35.69
79142;BME280;68550;-26.480;29.234;2023-10-19T05:47:54;84903.98;;;23.21;35.02
79142;BME280;68550;-26.480;29.234;2023-10-19T05:50:19;84905.83;;;23.30;34.71
79142;BME280;68550;-26.480;29.234;2023-10-19T05:57:36;84916.25;;;23.26;34.37
79142;BME280;68550;-26.480;29.234;2023-10-19T06:00:01;84921.78;;;23.33;34.06
79142;BME280;68550;-26.480;29.234;2023-10-19T06:02:27;84926.75;;;23.26;34.13
79142;BME280;68550;-26.480;29.234;2023-10-19T06:09:55;84922.32;;;23.35;33.57
79142;BME280;68550;-26.480;29.234;2023-10-19T06:24:15;84926.11;;;23.57;33.96
79142;BME280;68550;-26.480;29.234;2023-10-19T06:31:31;84922.45;;;23.67;34.34
79142;BME280;68550;-26.480;29.234;2023-10-19T06:33:58;84920.71;;;23.74;34.54
79142;BME280;68550;-26.480;29.234;2023-10-19T06:36:22;84921.01;;;23.65;35.84
79142;BME280;68550;-26.480;29.234;2023-10-19T06:58:13;84927.57;;;23.67;35.26
79142;BME280;68550;-26.480;29.234;2023-10-19T07:00:36;84927.35;;;24.16;35.17
79142;BME280;68550;-26.480;29.234;2023-10-19T07:03:01;84925.63;;;23.61;35.45
79142;BME280;68550;-26.480;29.234;2023-10-19T07:12:45;84924.65;;;24.19;34.73
79142;BME280;68550;-26.480;29.234;2023-10-19T07:20:20;84918.36;;;23.91;35.09
79142;BME280;68550;-26.480;29.234;2023-10-19T07:27:15;84919.85;;;23.74;35.51
79142;BME280;68550;-26.480;29.234;2023-10-19T07:46:39;84911.04;;;24.21;35.28
79142;BME280;68550;-26.480;29.234;2023-10-19T07:49:04;84909.93;;;24.56;35.02
79142;BME280;68550;-26.480;29.234;2023-10-19T07:58:46;84902.55;;;24.17;34.96
79142;BME280;68550;-26.480;29.234;2023-10-19T08:01:11;84901.77;;;23.83;35.65
79142;BME280;68550;-26.480;29.234;2023-10-19T08:15:43;84884.27;;;24.20;35.58
79142;BME280;68550;-26.480;29.234;2023-10-19T08:18:09;84885.83;;;24.45;35.44
79142;BME280;68550;-26.480;29.234;2023-10-19T08:20:34;84884.39;;;24.16;35.34
79142;BME280;68550;-26.480;29.234;2023-10-19T08:23:01;84880.81;;;24.10;35.64
79142;BME280;68550;-26.480;29.234;2023-10-19T08:25:25;84876.84;;;23.35;38.05
79142;BME280;68550;-26.480;29.234;2023-10-19T08:27:51;84875.85;;;24.36;37.29
79142;BME280;68550;-26.480;29.234;2023-10-19T08:30:17;84873.98;;;24.02;37.75
79142;BME280;68550;-26.480;29.234;2023-10-19T08:32:41;84871.35;;;24.41;36.61
79142;BME280;68550;-26.480;29.234;2023-10-19T08:35:08;84867.30;;;24.28;37.10
79142;BME280;68550;-26.480;29.234;2023-10-19T08:37:33;84866.20;;;24.38;37.17
79142;BME280;68550;-26.480;29.234;2023-10-19T08:39:59;84861.55;;;24.13;37.63
79142;BME280;68550;-26.480;29.234;2023-10-19T08:42:24;84862.04;;;24.10;37.37
79142;BME280;68550;-26.480;29.234;2023-10-19T08:44:49;84851.53;;;24.06;35.83
79142;BME280;68550;-26.480;29.234;2023-10-19T08:47:16;84861.84;;;24.52;35.62
79142;BME280;68550;-26.480;29.234;2023-10-19T08:49:40;84857.17;;;24.92;35.55
79142;BME280;68550;-26.480;29.234;2023-10-19T08:52:06;84855.06;;;24.81;35.12
79142;BME280;68550;-26.480;29.234;2023-10-19T08:54:30;84848.47;;;24.58;35.67
79142;BME280;68550;-26.480;29.234;2023-10-19T08:56:56;84846.33;;;24.76;35.92
79142;BME280;68550;-26.480;29.234;2023-10-19T08:59:23;84850.94;;;24.63;35.64
79142;BME280;68550;-26.480;29.234;2023-10-19T09:01:46;84849.50;;;24.88;35.44
79142;BME280;68550;-26.480;29.234;2023-10-19T09:04:12;84844.89;;;24.98;35.01
79142;BME280;68550;-26.480;29.234;2023-10-19T09:06:38;84844.32;;;24.71;35.11
79142;BME280;68550;-26.480;29.234;2023-10-19T09:09:02;84839.84;;;24.68;35.39
79142;BME280;68550;-26.480;29.234;2023-10-19T09:11:28;84841.32;;;24.76;35.23
79142;BME280;68550;-26.480;29.234;2023-10-19T09:13:55;84837.96;;;25.02;35.26
79142;BME280;68550;-26.480;29.234;2023-10-19T09:16:20;84836.69;;;24.38;35.48
79142;BME280;68550;-26.480;29.234;2023-10-19T09:18:45;84840.56;;;24.98;35.33
79142;BME280;68550;-26.480;29.234;2023-10-19T09:21:14;84842.21;;;24.78;35.16
79142;BME280;68550;-26.480;29.234;2023-10-19T09:23:38;84833.17;;;24.98;35.20
79142;BME280;68550;-26.480;29.234;2023-10-19T09:26:02;84833.07;;;24.73;35.32
79142;BME280;68550;-26.480;29.234;2023-10-19T09:28:25;84834.68;;;24.76;34.92
79142;BME280;68550;-26.480;29.234;2023-10-19T09:30:51;84832.25;;;24.64;35.17
79142;BME280;68550;-26.480;29.234;2023-10-19T09:33:15;84832.34;;;24.81;35.27
79142;BME280;68550;-26.480;29.234;2023-10-19T09:35:41;84832.17;;;24.82;35.25
79142;BME280;68550;-26.480;29.234;2023-10-19T09:38:06;84827.05;;;24.56;35.39
79142;BME280;68550;-26.480;29.234;2023-10-19T09:40:32;84827.12;;;24.78;35.43
79142;BME280;68550;-26.480;29.234;2023-10-19T09:42:59;84825.79;;;24.69;35.54
79142;BME280;68550;-26.480;29.234;2023-10-19T09:45:23;84825.15;;;24.57;35.38
79142;BME280;68550;-26.480;29.234;2023-10-19T09:47:50;84820.20;;;24.57;35.48
79142;BME280;68550;-26.480;29.234;2023-10-19T09:50:13;84815.55;;;24.64;35.32
79142;BME280;68550;-26.480;29.234;2023-10-19T09:52:41;84814.71;;;24.02;35.56
79142;BME280;68550;-26.480;29.234;2023-10-19T09:55:10;84816.90;;;24.86;34.79
79142;BME280;68550;-26.480;29.234;2023-10-19T09:57:34;84814.45;;;25.02;35.82
79142;BME280;68550;-26.480;29.234;2023-10-19T10:00:01;84815.15;;;24.80;36.25
79142;BME280;68550;-26.480;29.234;2023-10-19T10:02:21;84808.99;;;24.45;35.99
79142;BME280;68550;-26.480;29.234;2023-10-19T10:04:45;84803.03;;;24.92;35.79
79142;BME280;68550;-26.480;29.234;2023-10-19T10:07:11;84800.10;;;24.60;35.83
79142;BME280;68550;-26.480;29.234;2023-10-19T10:09:40;84802.74;;;24.72;36.09
79142;BME280;68550;-26.480;29.234;2023-10-19T10:14:27;84796.03;;;24.75;36.93
79142;BME280;68550;-26.480;29.234;2023-10-19T10:19:21;84790.53;;;24.55;36.22
79142;BME280;68550;-26.480;29.234;2023-10-19T10:24:08;84782.62;;;24.74;38.27
79142;BME280;68550;-26.480;29.234;2023-10-19T10:29:09;84771.07;;;24.69;36.35
79142;BME280;68550;-26.480;29.234;2023-10-19T10:31:23;84763.70;;;24.48;35.77
79142;BME280;68550;-26.480;29.234;2023-10-19T10:33:53;84767.12;;;24.77;35.73
79142;BME280;68550;-26.480;29.234;2023-10-19T10:36:16;84761.81;;;24.73;35.15
79142;BME280;68550;-26.480;29.234;2023-10-19T10:38:43;84756.72;;;24.85;35.21
79142;BME280;68550;-26.480;29.234;2023-10-19T10:41:06;84754.46;;;24.54;34.91
79142;BME280;68550;-26.480;29.234;2023-10-19T10:43:31;84752.27;;;24.49;35.00
79142;BME280;68550;-26.480;29.234;2023-10-19T10:46:04;84752.03;;;24.62;34.86
79142;BME280;68550;-26.480;29.234;2023-10-19T10:48:22;84752.44;;;24.67;34.85
79142;BME280;68550;-26.480;29.234;2023-10-19T10:50:50;84750.31;;;24.69;34.83
79142;BME280;68550;-26.480;29.234;2023-10-19T10:53:14;84751.07;;;24.68;34.60
79142;BME280;68550;-26.480;29.234;2023-10-19T10:55:39;84750.53;;;24.94;34.80
79142;BME280;68550;-26.480;29.234;2023-10-19T10:58:04;84742.33;;;24.78;34.36
79142;BME280;68550;-26.480;29.234;2023-10-19T11:00:30;84738.11;;;24.69;35.05
79142;BME280;68550;-26.480;29.234;2023-10-19T11:03:00;84734.13;;;24.86;34.89
79142;BME280;68550;-26.480;29.234;2023-10-19T11:05:22;84734.07;;;24.65;34.85
79142;BME280;68550;-26.480;29.234;2023-10-19T11:10:11;84734.54;;;24.80;34.75
79142;BME280;68550;-26.480;29.234;2023-10-19T11:12:37;84733.90;;;24.92;35.52
79142;BME280;68550;-26.480;29.234;2023-10-19T11:17:29;84728.12;;;25.16;36.79
79142;BME280;68550;-26.480;29.234;2023-10-19T11:19:57;84727.27;;;24.92;37.10
79142;BME280;68550;-26.480;29.234;2023-10-19T11:22:20;84727.09;;;25.19;36.98
79142;BME280;68550;-26.480;29.234;2023-10-19T11:24:44;84722.89;;;24.89;37.86
79142;BME280;68550;-26.480;29.234;2023-10-19T11:27:10;84724.00;;;24.97;37.90
79142;BME280;68550;-26.480;29.234;2023-10-19T11:29:36;84722.63;;;25.03;37.63
79142;BME280;68550;-26.480;29.234;2023-10-19T11:32:01;84719.00;;;24.69;37.83
79142;BME280;68550;-26.480;29.234;2023-10-19T11:34:26;84717.34;;;25.07;37.81
79142;BME280;68550;-26.480;29.234;2023-10-19T11:36:54;84716.93;;;25.09;38.22
79142;BME280;68550;-26.480;29.234;2023-10-19T11:39:17;84707.68;;;24.95;38.13
79142;BME280;68550;-26.480;29.234;2023-10-19T11:41:42;84708.27;;;24.97;38.41
79142;BME280;68550;-26.480;29.234;2023-10-19T11:44:08;84709.30;;;25.15;38.59
79142;BME280;68550;-26.480;29.234;2023-10-19T11:46:32;84704.90;;;25.03;38.63
79142;BME280;68550;-26.480;29.234;2023-10-19T11:49:02;84701.94;;;25.10;38.78
79142;BME280;68550;-26.480;29.234;2023-10-19T11:51:24;84701.93;;;24.78;39.37
79142;BME280;68550;-26.480;29.234;2023-10-19T11:53:51;84700.91;;;25.15;38.93
79142;BME280;68550;-26.480;29.234;2023-10-19T11:56:16;84704.34;;;25.02;38.85
79142;BME280;68550;-26.480;29.234;2023-10-19T11:58:43;84705.61;;;25.37;37.78
79142;BME280;68550;-26.480;29.234;2023-10-19T12:01:07;84702.91;;;24.89;38.74
79142;BME280;68550;-26.480;29.234;2023-10-19T12:03:33;84700.13;;;25.12;38.66
79142;BME280;68550;-26.480;29.234;2023-10-19T12:05:58;84703.57;;;24.95;39.63
79142;BME280;68550;-26.480;29.234;2023-10-19T12:08:22;84698.73;;;24.98;39.35
79142;BME280;68550;-26.480;29.234;2023-10-19T12:10:50;84695.58;;;25.07;39.25
79142;BME280;68550;-26.480;29.234;2023-10-19T12:13:13;84696.50;;;25.15;39.88
79142;BME280;68550;-26.480;29.234;2023-10-19T12:15:40;84693.85;;;25.11;40.32
79142;BME280;68550;-26.480;29.234;2023-10-19T12:18:04;84691.06;;;25.18;39.74
79142;BME280;68550;-26.480;29.234;2023-10-19T12:20:31;84689.58;;;25.52;39.56
79142;BME280;68550;-26.480;29.234;2023-10-19T12:22:55;84689.77;;;25.05;40.78
79142;BME280;68550;-26.480;29.234;2023-10-19T12:25:22;84687.86;;;25.43;40.23
79142;BME280;68550;-26.480;29.234;2023-10-19T12:27:47;84683.88;;;25.49;40.86
79142;BME280;68550;-26.480;29.234;2023-10-19T12:30:17;84684.22;;;25.21;40.37
79142;BME280;68550;-26.480;29.234;2023-10-19T12:32:37;84685.54;;;25.47;38.82
79142;BME280;68550;-26.480;29.234;2023-10-19T12:35:03;84681.20;;;25.30;38.82
79142;BME280;68550;-26.480;29.234;2023-10-19T12:37:28;84680.95;;;25.62;38.76
79142;BME280;68550;-26.480;29.234;2023-10-19T12:39:59;84684.11;;;25.43;38.52
79142;BME280;68550;-26.480;29.234;2023-10-19T12:42:21;84681.46;;;25.51;37.68
79142;BME280;68550;-26.480;29.234;2023-10-19T12:44:45;84681.63;;;25.29;38.10
79142;BME280;68550;-26.480;29.234;2023-10-19T12:47:11;84682.05;;;25.32;37.73
79142;BME280;68550;-26.480;29.234;2023-10-19T12:49:38;84681.32;;;25.12;38.85
79142;BME280;68550;-26.480;29.234;2023-10-19T12:52:03;84679.33;;;25.23;37.05
79142;BME280;68550;-26.480;29.234;2023-10-19T12:54:26;84678.02;;;24.76;36.24
79142;BME280;68550;-26.480;29.234;2023-10-19T12:56:52;84678.45;;;24.90;36.48
79142;BME280;68550;-26.480;29.234;2023-10-19T12:59:17;84676.32;;;25.12;36.23
79142;BME280;68550;-26.480;29.234;2023-10-19T13:01:45;84675.43;;;25.30;35.93
79142;BME280;68550;-26.480;29.234;2023-10-19T13:04:10;84673.37;;;25.23;36.17
79142;BME280;68550;-26.480;29.234;2023-10-19T13:06:34;84673.27;;;25.34;36.08
79142;BME280;68550;-26.480;29.234;2023-10-19T13:09:00;84669.74;;;25.41;34.66
79142;BME280;68550;-26.480;29.234;2023-10-19T13:11:24;84668.06;;;25.40;34.54
79142;BME280;68550;-26.480;29.234;2023-10-19T13:13:50;84666.70;;;25.43;34.88
79142;BME280;68550;-26.480;29.234;2023-10-19T13:16:17;84664.66;;;25.57;35.46
79142;BME280;68550;-26.480;29.234;2023-10-19T13:18:42;84662.81;;;25.35;34.68
79142;BME280;68550;-26.480;29.234;2023-10-19T13:21:05;84661.84;;;25.32;35.21
79142;BME280;68550;-26.480;29.234;2023-10-19T13:23:31;84661.53;;;25.34;34.93
79142;BME280;68550;-26.480;29.234;2023-10-19T13:25:56;84659.69;;;25.45;34.90
79142;BME280;68550;-26.480;29.234;2023-10-19T13:28:24;84663.13;;;25.41;33.49
79142;BME280;68550;-26.480;29.234;2023-10-19T13:30:52;84661.58;;;25.27;34.28
79142;BME280;68550;-26.480;29.234;2023-10-19T13:33:13;84660.34;;;25.11;34.58
79142;BME280;68550;-26.480;29.234;2023-10-19T13:35:39;84660.79;;;25.26;33.95
79142;BME280;68550;-26.480;29.234;2023-10-19T13:38:04;84657.21;;;25.29;33.70
79142;BME280;68550;-26.480;29.234;2023-10-19T13:40:31;84657.09;;;25.28;33.42
79142;BME280;68550;-26.480;29.234;2023-10-19T13:42:57;84654.92;;;25.10;33.97
79142;BME280;68550;-26.480;29.234;2023-10-19T13:45:21;84652.20;;;25.32;34.69
79142;BME280;68550;-26.480;29.234;2023-10-19T13:47:47;84653.68;;;25.20;34.90
79142;BME280;68550;-26.480;29.234;2023-10-19T13:50:12;84655.23;;;25.34;34.86
79142;BME280;68550;-26.480;29.234;2023-10-19T13:52:38;84654.90;;;25.36;34.87
79142;BME280;68550;-26.480;29.234;2023-10-19T13:57:29;84651.88;;;25.06;35.21
79142;BME280;68550;-26.480;29.234;2023-10-19T13:59:55;84652.03;;;25.14;35.21
79142;BME280;68550;-26.480;29.234;2023-10-19T14:02:20;84650.17;;;25.21;35.05
79142;BME280;68550;-26.480;29.234;2023-10-19T14:07:11;84651.02;;;25.21;34.86
79142;BME280;68550;-26.480;29.234;2023-10-19T14:09:36;84652.01;;;25.28;34.20
79142;BME280;68550;-26.480;29.234;2023-10-19T14:12:05;84652.31;;;25.21;34.25
79142;BME280;68550;-26.480;29.234;2023-10-19T14:14:28;84649.24;;;25.34;33.91
79142;BME280;68550;-26.480;29.234;2023-10-19T14:16:53;84648.93;;;25.25;34.48
79142;BME280;68550;-26.480;29.234;2023-10-19T14:19:23;84649.25;;;25.61;34.40
79142;BME280;68550;-26.480;29.234;2023-10-19T14:21:45;84646.48;;;25.48;33.37
79142;BME280;68550;-26.480;29.234;2023-10-19T14:24:09;84652.98;;;25.27;33.75
79142;BME280;68550;-26.480;29.234;2023-10-19T14:26:37;84649.38;;;25.41;33.37
79142;BME280;68550;-26.480;29.234;2023-10-19T14:29:01;84648.48;;;25.33;33.38
79142;BME280;68550;-26.480;29.234;2023-10-19T14:31:29;84646.81;;;25.67;33.05
79142;BME280;68550;-26.480;29.234;2023-10-19T14:33:51;84646.25;;;25.28;33.06
79142;BME280;68550;-26.480;29.234;2023-10-19T14:36:17;84645.53;;;25.27;33.52
79142;BME280;68550;-26.480;29.234;2023-10-19T14:38:44;84645.56;;;25.31;33.34
79142;BME280;68550;-26.480;29.234;2023-10-19T14:41:08;84645.30;;;25.15;33.83
79142;BME280;68550;-26.480;29.234;2023-10-19T14:43:34;84648.35;;;25.28;33.84
79142;BME280;68550;-26.480;29.234;2023-10-19T14:46:00;84650.05;;;25.15;33.71
79142;BME280;68550;-26.480;29.234;2023-10-19T14:48:25;84651.58;;;25.11;33.97
79142;BME280;68550;-26.480;29.234;2023-10-19T14:50:50;84655.66;;;25.17;33.77
79142;BME280;68550;-26.480;29.234;2023-10-19T14:53:16;84655.44;;;25.16;33.66
79142;BME280;68550;-26.480;29.234;2023-10-19T14:55:44;84653.22;;;25.56;33.45
79142;BME280;68550;-26.480;29.234;2023-10-19T14:58:09;84652.56;;;25.37;32.23
79142;BME280;68550;-26.480;29.234;2023-10-19T15:00:33;84653.26;;;25.40;33.11
79142;BME280;68550;-26.480;29.234;2023-10-19T15:02:59;84651.03;;;25.84;32.09
79142;BME280;68550;-26.480;29.234;2023-10-19T15:05:23;84650.36;;;25.24;32.76
79142;BME280;68550;-26.480;29.234;2023-10-19T15:07:49;84649.24;;;25.32;32.51
79142;BME280;68550;-26.480;29.234;2023-10-19T15:10:14;84649.56;;;25.17;32.40
79142;BME280;68550;-26.480;29.234;2023-10-19T15:12:45;84649.36;;;25.39;32.62
79142;BME280;68550;-26.480;29.234;2023-10-19T15:15:08;84651.58;;;25.29;32.64
79142;BME280;68550;-26.480;29.234;2023-10-19T15:17:39;84653.72;;;25.34;32.17
79142;BME280;68550;-26.480;29.234;2023-10-19T15:19:59;84656.48;;;25.23;32.65
79142;BME280;68550;-26.480;29.234;2023-10-19T15:22:21;84658.28;;;25.32;32.94
79142;BME280;68550;-26.480;29.234;2023-10-19T15:27:17;84661.99;;;25.22;32.94
79142;BME280;68550;-26.480;29.234;2023-10-19T15:29:37;84664.05;;;25.16;32.96
79142;BME280;68550;-26.480;29.234;2023-10-19T15:32:03;84665.07;;;25.07;33.15
79142;BME280;68550;-26.480;29.234;2023-10-19T15:34:31;84667.12;;;25.00;33.29
79142;BME280;68550;-26.480;29.234;2023-10-19T15:37:00;84668.25;;;25.03;33.40
79142;BME280;68550;-26.480;29.234;2023-10-19T15:39:22;84666.33;;;25.06;33.11
79142;BME280;68550;-26.480;29.234;2023-10-19T15:41:46;84671.78;;;25.31;32.75
79142;BME280;68550;-26.480;29.234;2023-10-19T15:44:16;84671.45;;;25.06;32.97
79142;BME280;68550;-26.480;29.234;2023-10-19T15:46:37;84673.80;;;25.22;32.43
79142;BME280;68550;-26.480;29.234;2023-10-19T15:49:08;84673.91;;;25.39;32.54
79142;BME280;68550;-26.480;29.234;2023-10-19T15:53:57;84674.52;;;25.04;32.58
79142;BME280;68550;-26.480;29.234;2023-10-19T15:56:23;84675.99;;;25.01;32.95
79142;BME280;68550;-26.480;29.234;2023-10-19T15:58:47;84675.76;;;25.24;32.94
79142;BME280;68550;-26.480;29.234;2023-10-19T16:01:18;84677.44;;;25.17;32.07
79142;BME280;68550;-26.480;29.234;2023-10-19T16:03:40;84680.28;;;25.17;32.17
79142;BME280;68550;-26.480;29.234;2023-10-19T16:06:03;84680.66;;;25.25;31.80
79142;BME280;68550;-26.480;29.234;2023-10-19T16:08:37;84681.01;;;25.14;31.77
79142;BME280;68550;-26.480;29.234;2023-10-19T16:10:52;84683.41;;;25.34;32.30
79142;BME280;68550;-26.480;29.234;2023-10-19T16:13:18;84686.36;;;25.32;31.57
79142;BME280;68550;-26.480;29.234;2023-10-19T16:15:44;84688.47;;;25.37;31.70
79142;BME280;68550;-26.480;29.234;2023-10-19T16:18:09;84689.25;;;25.33;31.68
79142;BME280;68550;-26.480;29.234;2023-10-19T16:20:40;84690.47;;;25.42;31.94
79142;BME280;68550;-26.480;29.234;2023-10-19T16:22:59;84690.38;;;25.65;31.48
79142;BME280;68550;-26.480;29.234;2023-10-19T16:25:24;84693.22;;;25.39;31.48
79142;BME280;68550;-26.480;29.234;2023-10-19T16:27:53;84694.85;;;25.39;32.28
79142;BME280;68550;-26.480;29.234;2023-10-19T16:30:15;84693.90;;;25.26;32.18
79142;BME280;68550;-26.480;29.234;2023-10-19T16:32:45;84694.61;;;25.55;32.20
79142;BME280;68550;-26.480;29.234;2023-10-19T16:35:12;84695.79;;;25.42;32.41
79142;BME280;68550;-26.480;29.234;2023-10-19T16:37:42;84697.46;;;25.45;32.49
79142;BME280;68550;-26.480;29.234;2023-10-19T16:39:56;84699.69;;;25.41;31.35
79142;BME280;68550;-26.480;29.234;2023-10-19T16:42:26;84699.80;;;25.44;31.10
79142;BME280;68550;-26.480;29.234;2023-10-19T16:44:54;84700.35;;;25.40;31.02
79142;BME280;68550;-26.480;29.234;2023-10-19T16:47:14;84702.32;;;25.69;31.19
79142;BME280;68550;-26.480;29.234;2023-10-19T16:49:39;84703.00;;;25.71;30.96
79142;BME280;68550;-26.480;29.234;2023-10-19T16:52:08;84704.18;;;25.47;33.07
79142;BME280;68550;-26.480;29.234;2023-10-19T16:54:33;84704.37;;;25.29;32.54
79142;BME280;68550;-26.480;29.234;2023-10-19T16:56:59;84704.18;;;25.34;32.92
79142;BME280;68550;-26.480;29.234;2023-10-19T16:59:21;84704.63;;;25.44;32.67
79142;BME280;68550;-26.480;29.234;2023-10-19T17:01:51;84704.77;;;25.38;32.88
79142;BME280;68550;-26.480;29.234;2023-10-19T17:04:18;84705.87;;;25.37;32.89
79142;BME280;68550;-26.480;29.234;2023-10-19T17:09:12;84707.27;;;25.35;32.75